Time;durP1;ratioP1;P1;durP2;ratioP2;P2;SDS_P1;SDS_P2;PMS_P1;PMS_P2;Temp;Humidity;BMP_temperature;BMP_pressure;BME280_temperature;BME280_humidity;BME280_pressure;Samples;Min_cycle;Max_cycle;Signal;HPM_P1;HPM_P2
2022/08/21 00:06:28;;;;;;;4.53;3.20;;;;;16.90;98971.00;;;;16720241;28;20193;-47
2022/08/21 00:14:30;;;;;;;6.83;4.43;;;;;17.10;98965.00;;;;16719492;28;20205;-47
2022/08/21 00:22:34;;;;;;;3.93;3.63;;;;;16.90;98968.00;;;;16718914;28;20224;-47
2022/08/21 00:30:37;;;;;;;5.00;3.80;;;;;16.80;98959.00;;;;16719188;28;20300;-47
2022/08/21 00:38:41;;;;;;;4.03;3.67;;;;;16.40;98963.00;;;;16717930;28;20318;-47
2022/08/21 00:46:44;;;;;;;3.87;3.53;;;;;16.70;98962.00;;;;16718406;28;20795;-47
2022/08/21 00:54:49;;;;;;;5.97;3.40;;;;;16.90;98962.00;;;;16717460;28;20194;-47
2022/08/21 01:02:51;;;;;;;6.33;3.30;;;;;16.30;98961.00;;;;16717454;28;20763;-47
2022/08/21 01:10:55;;;;;;;3.83;3.53;;;;;16.50;98956.00;;;;16718520;28;20217;-47
2022/08/21 01:19:01;;;;;;;4.80;4.00;;;;;16.40;98960.00;;;;16717561;28;20718;-47
2022/08/21 01:27:05;;;;;;;6.60;4.20;;;;;16.50;98955.00;;;;16717657;28;20218;-47
2022/08/21 01:35:09;;;;;;;6.70;4.37;;;;;16.70;98952.00;;;;16716788;28;20212;-47
2022/08/21 01:43:12;;;;;;;7.93;4.20;;;;;16.70;98945.00;;;;16716160;28;20607;-47
2022/08/21 01:51:15;;;;;;;4.73;4.23;;;;;16.20;98948.00;;;;16727086;28;20226;-47
2022/08/21 01:59:19;;;;;;;4.97;4.17;;;;;15.80;98946.00;;;;16728557;28;20313;-47
2022/08/21 02:07:21;;;;;;;5.20;4.00;;;;;16.50;98934.00;;;;16731199;28;20292;-47
2022/08/21 02:15:25;;;;;;;4.73;4.23;;;;;16.00;98926.00;;;;16733139;28;20193;-47
2022/08/21 02:23:28;;;;;;;5.93;4.93;;;;;16.00;98934.00;;;;16727651;28;20238;-47
2022/08/21 02:31:32;;;;;;;5.50;4.37;;;;;15.40;98939.00;;;;16724831;28;20623;-47
2022/08/21 02:39:34;;;;;;;4.30;3.90;;;;;16.00;98933.00;;;;16725992;28;20233;-47
2022/08/21 02:47:38;;;;;;;5.10;4.17;;;;;15.70;98928.00;;;;16725845;28;20308;-47
2022/08/21 02:55:41;;;;;;;6.37;4.40;;;;;15.50;98939.00;;;;16724875;28;20252;-47
2022/08/21 03:03:49;;;;;;;10.20;5.20;;;;;15.30;98944.00;;;;16723487;28;20310;-47
2022/08/21 03:11:53;;;;;;;6.60;4.53;;;;;15.50;98933.00;;;;16723775;28;20249;-47
2022/08/21 03:19:58;;;;;;;5.03;4.60;;;;;15.00;98939.00;;;;16723113;28;20663;-47
2022/08/21 03:28:00;;;;;;;7.50;5.00;;;;;15.20;98935.00;;;;16722997;28;20612;-47
2022/08/21 03:36:06;;;;;;;5.90;5.30;;;;;15.40;98937.00;;;;16730905;28;20212;-47
2022/08/21 03:44:09;;;;;;;4.60;4.30;;;;;15.50;98948.00;;;;16870923;22;20238;-47
2022/08/21 03:52:13;;;;;;;5.70;5.20;;;;;15.60;98946.00;;;;16808210;28;20655;-47
2022/08/21 04:00:17;;;;;;;5.33;4.83;;;;;15.30;98959.00;;;;16787232;28;20227;-47
2022/08/21 04:08:20;;;;;;;5.60;5.10;;;;;15.40;98943.00;;;;16786916;28;20248;-46
2022/08/21 04:16:23;;;;;;;6.90;5.93;;;;;15.10;98964.00;;;;16786570;28;20191;-50
2022/08/21 04:24:27;;;;;;;5.47;4.40;;;;;15.30;98960.00;;;;16786153;28;20247;-50
2022/08/21 04:32:29;;;;;;;7.03;5.77;;;;;15.60;98968.00;;;;16785097;28;20590;-50
2022/08/21 04:40:33;;;;;;;5.50;4.97;;;;;15.40;98976.00;;;;16785475;28;20586;-49
2022/08/21 04:48:36;;;;;;;5.50;5.00;;;;;15.40;98989.00;;;;16784320;28;20244;-49
2022/08/21 04:56:43;;;;;;;6.03;4.97;;;;;15.50;98985.00;;;;16784535;28;20410;-50
2022/08/21 05:04:49;;;;;;;5.37;4.87;;;;;15.30;98984.00;;;;16777982;28;20309;-50
2022/08/21 05:12:53;;;;;;;6.37;5.07;;;;;15.50;98983.00;;;;16773617;28;20234;-49
2022/08/21 05:20:56;;;;;;;7.03;5.30;;;;;16.40;98977.00;;;;16786151;28;20225;-49
2022/08/21 05:29:00;;;;;;;5.30;4.60;;;;;16.30;98995.00;;;;16795781;28;20228;-49
2022/08/21 05:37:03;;;;;;;6.87;4.87;;;;;16.50;98991.00;;;;16795202;28;20689;-49
2022/08/21 05:45:08;;;;;;;6.97;5.30;;;;;16.30;98997.00;;;;16794998;28;20193;-50
2022/08/21 05:53:11;;;;;;;5.80;5.30;;;;;17.90;98989.00;;;;16794677;28;20215;-51
2022/08/21 06:01:15;;;;;;;5.67;5.27;;;;;18.40;98983.00;;;;16794196;28;20229;-50
2022/08/21 06:09:18;;;;;;;8.43;5.17;;;;;18.70;98988.00;;;;16793757;28;20304;-50
2022/08/21 06:17:22;;;;;;;6.43;5.83;;;;;18.90;98979.00;;;;16793310;28;20300;-51
2022/08/21 06:25:25;;;;;;;6.60;5.80;;;;;19.30;98987.00;;;;16792735;28;20198;-50
2022/08/21 06:33:29;;;;;;;5.97;5.47;;;;;19.40;98977.00;;;;16792078;28;20334;-51
2022/08/21 06:41:32;;;;;;;6.40;5.30;;;;;20.00;98971.00;;;;16791874;28;20229;-49
2022/08/21 06:49:35;;;;;;;5.80;5.20;;;;;20.10;98969.00;;;;16791356;28;20224;-50
2022/08/21 06:57:38;;;;;;;4.90;4.40;;;;;20.50;98964.00;;;;16790923;28;20316;-50
2022/08/21 07:05:42;;;;;;;6.43;4.90;;;;;20.90;98966.00;;;;16789904;28;20290;-50
2022/08/21 07:13:44;;;;;;;5.30;4.90;;;;;21.10;98962.00;;;;16789727;28;20215;-50
2022/08/21 07:21:48;;;;;;;6.23;4.57;;;;;21.10;98952.00;;;;16789289;28;20304;-51
2022/08/21 07:29:50;;;;;;;9.73;4.50;;;;;21.40;98956.00;;;;16789242;28;20228;-50
2022/08/21 07:37:54;;;;;;;4.90;4.47;;;;;21.80;98948.00;;;;16788728;28;20229;-48
2022/08/21 07:45:57;;;;;;;6.87;4.13;;;;;22.30;98939.00;;;;16787398;28;20233;-48
2022/08/21 07:54:01;;;;;;;3.67;3.37;;;;;23.10;98930.00;;;;16786480;28;20249;-48
2022/08/21 08:02:04;;;;;;;5.77;4.03;;;;;23.20;98934.00;;;;16786490;28;20221;-48
2022/08/21 08:10:10;;;;;;;6.27;4.53;;;;;23.70;98928.00;;;;16786883;28;20308;-48
2022/08/21 08:18:13;;;;;;;5.80;4.83;;;;;23.80;98920.00;;;;16786021;28;20213;-50
2022/08/21 08:26:17;;;;;;;5.20;3.90;;;;;24.20;98906.00;;;;16786728;28;20673;-50
2022/08/21 08:34:21;;;;;;;6.27;4.83;;;;;24.20;98905.00;;;;16785723;28;20224;-50
2022/08/21 08:42:29;;;;;;;4.87;4.30;;;;;24.70;98897.00;;;;16785072;28;20247;-50
2022/08/21 08:50:49;;;;;;;5.33;4.63;;;;;25.20;98883.00;;;;16784339;28;20307;-50
2022/08/21 08:58:54;;;;;;;7.70;4.60;;;;;25.20;98878.00;;;;16793538;28;20596;-51
2022/08/21 09:07:05;;;;;;;5.87;4.40;;;;;25.90;98889.00;;;;16798240;28;20201;-49
2022/08/21 09:15:18;;;;;;;7.10;4.70;;;;;25.30;98879.00;;;;16797538;28;20289;-50
2022/08/21 09:23:28;;;;;;;6.10;4.43;;;;;25.60;98872.00;;;;16797123;28;20311;-50
2022/08/21 09:31:33;;;;;;;7.83;4.87;;;;;26.40;98856.00;;;;16796151;28;20209;-49
2022/08/21 09:39:41;;;;;;;5.40;3.77;;;;;26.70;98857.00;;;;16807979;22;20316;-81
2022/08/21 09:47:46;;;;;;;6.93;4.30;;;;;26.20;98857.00;;;;16772072;28;20222;-80
2022/08/21 10:04:14;;;;;;;7.33;3.70;;;;;29.00;98837.00;;;;16752662;28;20225;-78
2022/08/21 10:12:22;;;;;;;6.07;3.97;;;;;28.70;98831.00;;;;16727511;28;20222;-78
2022/08/21 10:20:32;;;;;;;4.90;3.90;;;;;29.40;98826.00;;;;16728449;28;20209;-78
2022/08/21 10:28:39;;;;;;;4.70;3.63;;;;;29.40;98824.00;;;;16742726;28;20270;-80
2022/08/21 10:36:47;;;;;;;6.30;3.70;;;;;29.40;98815.00;;;;16737075;28;20255;-78
2022/08/21 10:44:58;;;;;;;6.80;3.23;;;;;30.50;98811.00;;;;16748766;28;20257;-79
2022/08/21 10:53:14;;;;;;;6.00;3.40;;;;;30.20;98808.00;;;;16735895;28;20210;-78
2022/08/21 11:01:21;;;;;;;4.00;3.70;;;;;30.30;98805.00;;;;16731429;28;20261;-79
2022/08/21 11:09:27;;;;;;;6.10;3.90;;;;;32.00;98800.00;;;;16777302;22;20237;-49
2022/08/21 11:17:33;;;;;;;4.13;3.43;;;;;32.80;98799.00;;;;16721967;28;20632;-49
2022/08/21 11:25:41;;;;;;;6.27;3.57;;;;;30.90;98795.00;;;;16722424;28;20329;-51
2022/08/21 11:34:05;;;;;;;5.37;3.97;;;;;29.80;98784.00;;;;16722304;28;20218;-48
2022/08/21 11:42:17;;;;;;;5.10;4.00;;;;;31.30;98783.00;;;;16722215;28;20321;-49
2022/08/21 11:50:21;;;;;;;3.70;3.40;;;;;33.90;98771.00;;;;16720987;28;20214;-50
2022/08/21 11:58:28;;;;;;;4.93;2.90;;;;;32.80;98761.00;;;;16720802;28;20301;-50
2022/08/21 12:06:33;;;;;;;5.00;3.70;;;;;32.60;98778.00;;;;16720335;28;20212;-48
2022/08/21 12:14:42;;;;;;;7.03;4.13;;;;;31.20;98766.00;;;;16719829;28;20309;-49
2022/08/21 12:22:52;;;;;;;3.70;2.97;;;;;33.80;98757.00;;;;16719579;28;20313;-49
2022/08/21 12:30:56;;;;;;;4.13;3.40;;;;;33.30;98760.00;;;;16719817;28;20206;-49
2022/08/21 12:39:02;;;;;;;3.43;3.13;;;;;33.90;98750.00;;;;16720018;28;20313;-50
2022/08/21 12:47:14;;;;;;;6.00;3.83;;;;;34.70;98734.00;;;;16719690;28;20205;-50
2022/08/21 12:55:25;;;;;;;4.27;3.10;;;;;34.30;98731.00;;;;16717546;28;20706;-50
2022/08/21 13:03:30;;;;;;;3.83;2.93;;;;;34.60;98734.00;;;;16718680;28;20226;-49
2022/08/21 13:11:33;;;;;;;4.97;3.73;;;;;35.00;98740.00;;;;16717867;28;20206;-50
2022/08/21 13:19:37;;;;;;;4.67;4.13;;;;;33.90;98743.00;;;;16718262;28;20224;-49
2022/08/21 13:27:40;;;;;;;4.43;3.03;;;;;32.00;98740.00;;;;16717719;28;20650;-49
2022/08/21 13:35:51;;;;;;;7.40;3.80;;;;;35.40;98736.00;;;;16717620;28;20190;-49
2022/08/21 13:43:59;;;;;;;3.93;3.13;;;;;36.60;98726.00;;;;16723370;28;20229;-49
2022/08/21 13:52:04;;;;;;;3.80;3.33;;;;;35.70;98715.00;;;;16728059;28;20218;-47
2022/08/21 14:00:19;;;;;;;6.10;3.50;;;;;36.10;98714.00;;;;16727094;28;20649;-49
2022/08/21 14:08:27;;;;;;;4.03;3.20;;;;;36.40;98715.00;;;;16726539;28;20226;-49
2022/08/21 14:16:41;;;;;;;4.77;3.27;;;;;33.80;98712.00;;;;16727567;28;20559;-49
2022/08/21 14:24:45;;;;;;;3.50;3.20;;;;;35.50;98701.00;;;;16724544;28;20778;-49
2022/08/21 14:32:48;;;;;;;3.67;2.63;;;;;34.80;98703.00;;;;16724956;28;20612;-50
2022/08/21 14:40:54;;;;;;;4.03;3.63;;;;;35.00;98701.00;;;;16720579;28;20304;-48
2022/08/21 14:48:57;;;;;;;6.50;3.87;;;;;33.10;98695.00;;;;16722007;28;20221;-49
2022/08/21 14:57:03;;;;;;;5.20;3.13;;;;;34.50;98688.00;;;;16722747;28;20217;-49
2022/08/21 15:05:06;;;;;;;5.63;3.13;;;;;35.00;98673.00;;;;16724115;28;20305;-49
2022/08/21 15:13:10;;;;;;;3.50;3.07;;;;;36.00;98677.00;;;;16723844;28;20648;-48
2022/08/21 15:21:13;;;;;;;6.30;5.03;;;;;35.10;98679.00;;;;16725002;28;20690;-48
2022/08/21 15:29:17;;;;;;;4.63;3.20;;;;;35.30;98664.00;;;;16722268;28;20672;-50
2022/08/21 15:37:19;;;;;;;5.67;4.03;;;;;36.20;98657.00;;;;16722645;28;20194;-49
2022/08/21 15:45:23;;;;;;;3.60;3.30;;;;;37.80;98655.00;;;;16803454;22;20712;-51
2022/08/21 15:53:25;;;;;;;4.17;3.20;;;;;35.00;98646.00;;;;16738344;28;20226;-51
2022/08/21 16:01:30;;;;;;;4.90;3.43;;;;;34.00;98648.00;;;;16720118;28;20257;-50
2022/08/21 16:09:32;;;;;;;9.13;3.73;;;;;38.50;98657.00;;;;16718254;28;20289;-50
2022/08/21 16:17:37;;;;;;;4.40;3.53;;;;;39.80;98652.00;;;;16718255;28;20200;-50
2022/08/21 16:25:41;;;;;;;4.20;3.80;;;;;39.30;98648.00;;;;16717703;28;20224;-50
2022/08/21 16:33:49;;;;;;;4.53;3.00;;;;;36.20;98634.00;;;;16718673;28;20336;-49
2022/08/21 16:41:52;;;;;;;5.70;3.23;;;;;33.50;98634.00;;;;16717643;28;20259;-50
2022/08/21 16:49:56;;;;;;;4.73;3.77;;;;;36.40;98625.00;;;;16717213;28;20268;-50
2022/08/21 16:57:59;;;;;;;4.20;3.60;;;;;39.00;98621.00;;;;16717022;28;20739;-51
2022/08/21 17:06:03;;;;;;;4.07;3.33;;;;;37.60;98625.00;;;;16717669;28;20533;-50
2022/08/21 17:14:08;;;;;;;4.73;3.93;;;;;36.60;98621.00;;;;16717605;28;20210;-50
2022/08/21 17:22:12;;;;;;;4.70;3.00;;;;;37.60;98625.00;;;;16728138;28;20226;-50
2022/08/21 17:30:16;;;;;;;5.90;5.30;;;;;35.80;98630.00;;;;16729490;28;20461;-50
2022/08/21 17:38:20;;;;;;;5.80;5.27;;;;;35.40;98625.00;;;;16728479;28;20320;-50
2022/08/21 17:46:26;;;;;;;4.77;3.90;;;;;31.00;98631.00;;;;16728184;28;20218;-49
2022/08/21 17:54:31;;;;;;;4.20;3.77;;;;;27.60;98635.00;;;;16727401;28;20697;-49
2022/08/21 18:02:34;;;;;;;5.40;4.73;;;;;25.70;98645.00;;;;16727439;28;20279;-49
2022/08/21 18:10:40;;;;;;;5.07;4.50;;;;;24.80;98651.00;;;;16727207;28;20301;-50
2022/08/21 18:18:43;;;;;;;5.17;4.67;;;;;24.70;98648.00;;;;16726646;28;20241;-49
2022/08/21 18:26:47;;;;;;;5.23;3.53;;;;;24.20;98657.00;;;;16725476;28;20328;-50
2022/08/21 18:34:50;;;;;;;4.90;3.60;;;;;23.60;98663.00;;;;16725541;28;20226;-49
2022/08/21 18:42:54;;;;;;;7.93;4.03;;;;;23.30;98666.00;;;;16724372;28;20226;-49
2022/08/21 18:50:56;;;;;;;6.13;3.70;;;;;22.90;98675.00;;;;16724212;28;20214;-49
2022/08/21 18:59:01;;;;;;;5.73;3.83;;;;;22.30;98667.00;;;;16723929;28;20275;-49
2022/08/21 19:07:03;;;;;;;6.10;4.30;;;;;22.00;98682.00;;;;16722762;28;20221;-50
2022/08/21 19:15:08;;;;;;;5.43;4.57;;;;;21.80;98683.00;;;;16721354;28;20512;-49
2022/08/21 19:23:13;;;;;;;4.70;4.20;;;;;21.40;98687.00;;;;16722010;28;20234;-50
2022/08/21 19:31:20;;;;;;;5.30;4.00;;;;;21.40;98691.00;;;;16721771;28;20237;-49
2022/08/21 19:39:22;;;;;;;6.20;4.50;;;;;21.20;98703.00;;;;16720809;28;20317;-50
2022/08/21 19:47:27;;;;;;;7.53;4.30;;;;;21.00;98704.00;;;;16720668;28;20269;-50
2022/08/21 19:55:29;;;;;;;5.10;4.33;;;;;20.90;98700.00;;;;16719069;28;20221;-50
2022/08/21 20:03:33;;;;;;;5.47;4.37;;;;;21.10;98700.00;;;;16719113;28;20233;-49
2022/08/21 20:11:38;;;;;;;8.23;4.60;;;;;20.90;98702.00;;;;16719428;28;20647;-49
2022/08/21 20:19:43;;;;;;;6.53;4.07;;;;;21.20;98714.00;;;;16720231;28;20317;-50
2022/08/21 20:27:46;;;;;;;4.70;4.30;;;;;21.00;98707.00;;;;16718710;28;20714;-50
2022/08/21 20:35:51;;;;;;;7.90;4.00;;;;;21.50;98710.00;;;;16717965;28;20221;-49
2022/08/21 20:43:53;;;;;;;5.57;4.20;;;;;20.60;98710.00;;;;16717299;28;20234;-49
2022/08/21 20:51:58;;;;;;;3.80;3.40;;;;;20.20;98717.00;;;;16716585;28;20222;-49
2022/08/21 21:00:04;;;;;;;4.47;4.00;;;;;19.70;98719.00;;;;16716524;28;20224;-49
2022/08/21 21:08:12;;;;;;;6.80;4.43;;;;;19.70;98724.00;;;;16718130;28;20201;-50
2022/08/21 21:16:26;;;;;;;7.10;4.50;;;;;19.80;98717.00;;;;16717287;28;20690;-50
2022/08/21 21:24:35;;;;;;;5.30;3.43;;;;;19.10;98722.00;;;;16713385;28;20226;-50
2022/08/21 21:32:38;;;;;;;6.47;4.87;;;;;19.30;98715.00;;;;16716030;28;20241;-50
2022/08/21 21:40:51;;;;;;;6.43;5.00;;;;;19.20;98721.00;;;;16743474;22;20226;-48
2022/08/21 21:49:08;;;;;;;6.30;4.70;;;;;19.20;98713.00;;;;16726300;28;20750;-48
2022/08/21 21:57:19;;;;;;;6.50;4.83;;;;;19.10;98720.00;;;;16772894;28;20201;-48
2022/08/21 22:05:34;;;;;;;12.10;5.63;;;;;18.90;98718.00;;;;16723156;28;20581;-48
2022/08/21 22:13:45;;;;;;;5.50;4.53;;;;;19.50;98719.00;;;;16727878;28;20376;-49
2022/08/21 22:21:53;;;;;;;6.10;4.90;;;;;18.60;98729.00;;;;16727863;28;20229;-48
2022/08/21 22:29:59;;;;;;;7.03;5.00;;;;;18.80;98721.00;;;;16727548;28;20205;-48
2022/08/21 22:38:01;;;;;;;4.80;4.13;;;;;19.10;98727.00;;;;16726429;28;20659;-48
2022/08/21 22:46:07;;;;;;;8.73;5.23;;;;;19.20;98732.00;;;;16725616;28;20748;-47
2022/08/21 22:54:13;;;;;;;6.57;4.80;;;;;18.30;98731.00;;;;16724958;28;20216;-48
2022/08/21 23:02:33;;;;;;;6.13;5.10;;;;;18.10;98734.00;;;;16725019;28;20628;-48
2022/08/21 23:10:40;;;;;;;4.40;4.10;;;;;18.20;98742.00;;;;16724649;28;20702;-47
2022/08/21 23:18:52;;;;;;;6.10;4.90;;;;;18.00;98728.00;;;;16722455;28;20320;-48
2022/08/21 23:27:00;;;;;;;4.97;4.37;;;;;18.70;98722.00;;;;16723346;28;20222;-48
2022/08/21 23:35:15;;;;;;;5.63;5.23;;;;;17.90;98724.00;;;;16723531;28;20350;-48
2022/08/21 23:43:36;;;;;;;6.53;5.53;;;;;18.70;98722.00;;;;16722507;28;20226;-48
2022/08/21 23:51:47;;;;;;;6.17;5.30;;;;;18.40;98719.00;;;;16719185;28;20210;-48
